JAL8118 RJTT-RJBE
Flight info
| Callsign | JAL8118 |
|---|---|
| Flight time | 0h 55m |
| Altitude | 38000 |
| Route | NINOX Y28 IPLES Y207 ARASI Y20 WAKIT Y201 TRACY |
| Aircraft | A359/H-SDE2E3GHIJ3J4J5LM1ORWXY/LB1D1 |
Departure
| Time | 2026-04-24 12:57 |
|---|---|
| Airport | Tokyo Haneda International Airport (RJTT) |
Arrival
| Time | 2026-04-24 13:52 |
|---|---|
| Airport | Kobe Airport (RJBE) |
| Time | Latitude | Longitude | Altitude | Speed | Heading |
|---|---|---|---|---|---|
| 2026-04-24 12:27 | 35.54482 | 139.78462 | 29 ft | 0 kts | 60° |
| 2026-04-24 12:44 | 35.54476 | 139.78450 | 29 ft | 3 kts | 60° |
| 2026-04-24 12:44 | 35.54474 | 139.78444 | 28 ft | 0 kts | 60° |
| 2026-04-24 12:44 | 35.54468 | 139.78434 | 27 ft | 1 kts | 79° |
| 2026-04-24 12:45 | 35.54470 | 139.78412 | 27 ft | 3 kts | 113° |
| 2026-04-24 12:45 | 35.54482 | 139.78393 | 26 ft | 1 kts | 144° |
| 2026-04-24 12:48 | 35.54480 | 139.78395 | 27 ft | 1 kts | 144° |
| 2026-04-24 12:48 | 35.54465 | 139.78408 | 27 ft | 5 kts | 144° |
| 2026-04-24 12:49 | 35.54449 | 139.78422 | 29 ft | 0 kts | 144° |
| 2026-04-24 12:49 | 35.54440 | 139.78428 | 29 ft | 8 kts | 150° |
| 2026-04-24 12:49 | 35.54381 | 139.78462 | 30 ft | 11 kts | 155° |
| 2026-04-24 12:50 | 35.54303 | 139.78507 | 31 ft | 14 kts | 154° |
| 2026-04-24 12:50 | 35.54205 | 139.78567 | 29 ft | 18 kts | 151° |
| 2026-04-24 12:50 | 35.54080 | 139.78656 | 27 ft | 23 kts | 150° |
| 2026-04-24 12:50 | 35.53935 | 139.78758 | 26 ft | 25 kts | 150° |
| 2026-04-24 12:51 | 35.53774 | 139.78871 | 28 ft | 28 kts | 150° |
| 2026-04-24 12:51 | 35.53598 | 139.78994 | 30 ft | 30 kts | 150° |
| 2026-04-24 12:51 | 35.53415 | 139.79130 | 28 ft | 31 kts | 137° |
| 2026-04-24 12:51 | 35.53419 | 139.79355 | 30 ft | 30 kts | 58° |
| 2026-04-24 12:52 | 35.53527 | 139.79579 | 29 ft | 31 kts | 60° |
| 2026-04-24 12:52 | 35.53638 | 139.79815 | 28 ft | 33 kts | 60° |
| 2026-04-24 12:52 | 35.53680 | 139.80027 | 27 ft | 22 kts | 123° |
| 2026-04-24 12:52 | 35.53558 | 139.80130 | 34 ft | 21 kts | 149° |
| 2026-04-24 12:53 | 35.53433 | 139.80218 | 39 ft | 21 kts | 150° |
| 2026-04-24 12:53 | 35.53308 | 139.80308 | 44 ft | 21 kts | 149° |
| 2026-04-24 12:53 | 35.53182 | 139.80397 | 44 ft | 21 kts | 150° |
| 2026-04-24 12:53 | 35.53059 | 139.80484 | 50 ft | 20 kts | 150° |
| 2026-04-24 12:54 | 35.52932 | 139.80489 | 51 ft | 20 kts | 214° |
| 2026-04-24 12:54 | 35.52822 | 139.80371 | 48 ft | 22 kts | 222° |
| 2026-04-24 12:54 | 35.52705 | 139.80236 | 49 ft | 24 kts | 223° |
| 2026-04-24 12:54 | 35.52599 | 139.80156 | 53 ft | 16 kts | 179° |
| 2026-04-24 12:55 | 35.52509 | 139.80226 | 51 ft | 15 kts | 134° |
| 2026-04-24 12:55 | 35.52493 | 139.80246 | 51 ft | 0 kts | 133° |
| 2026-04-24 12:55 | 35.52489 | 139.80253 | 48 ft | 9 kts | 133° |
| 2026-04-24 12:56 | 35.52441 | 139.80349 | 52 ft | 13 kts | 91° |
| 2026-04-24 12:56 | 35.52458 | 139.80406 | 51 ft | 9 kts | 51° |
| 2026-04-24 12:56 | 35.52629 | 139.80605 | 52 ft | 68 kts | 42° |
| 2026-04-24 12:56 | 35.52952 | 139.80969 | 49 ft | 121 kts | 42° |
| 2026-04-24 12:57 | 35.54039 | 139.82193 | 448 ft | 177 kts | 43° |
| 2026-04-24 12:57 | 35.54951 | 139.83241 | 1369 ft | 185 kts | 43° |
| 2026-04-24 12:57 | 35.55672 | 139.84667 | 1798 ft | 213 kts | 77° |
| 2026-04-24 12:57 | 35.55595 | 139.86543 | 2414 ft | 231 kts | 101° |
| 2026-04-24 12:58 | 35.55365 | 139.87864 | 2766 ft | 247 kts | 103° |
| 2026-04-24 12:58 | 35.54974 | 139.89982 | 3537 ft | 259 kts | 103° |
| 2026-04-24 12:58 | 35.54401 | 139.92089 | 4457 ft | 263 kts | 117° |
| 2026-04-24 12:58 | 35.53266 | 139.93844 | 5371 ft | 266 kts | 142° |
| 2026-04-24 12:59 | 35.51598 | 139.94825 | 6343 ft | 269 kts | 166° |
| 2026-04-24 12:59 | 35.49753 | 139.95261 | 7325 ft | 273 kts | 172° |
| 2026-04-24 12:59 | 35.47228 | 139.95467 | 8625 ft | 278 kts | 189° |
| 2026-04-24 12:59 | 35.45440 | 139.94580 | 9618 ft | 281 kts | 216° |
| 2026-04-24 13:00 | 35.44458 | 139.93492 | 10258 ft | 285 kts | 227° |
| 2026-04-24 13:00 | 35.43146 | 139.91586 | 10770 ft | 309 kts | 232° |
| 2026-04-24 13:00 | 35.41761 | 139.89431 | 11170 ft | 334 kts | 232° |
| 2026-04-24 13:00 | 35.40295 | 139.87131 | 11809 ft | 348 kts | 232° |
| 2026-04-24 13:01 | 35.38791 | 139.84771 | 12664 ft | 354 kts | 232° |
| 2026-04-24 13:01 | 35.37262 | 139.82370 | 13541 ft | 360 kts | 232° |
| 2026-04-24 13:01 | 35.35712 | 139.79936 | 14385 ft | 365 kts | 232° |
| 2026-04-24 13:01 | 35.34141 | 139.77471 | 15203 ft | 370 kts | 232° |
| 2026-04-24 13:02 | 35.32255 | 139.73964 | 16251 ft | 376 kts | 244° |
| 2026-04-24 13:02 | 35.31631 | 139.71937 | 16775 ft | 379 kts | 255° |
| 2026-04-24 13:02 | 35.31366 | 139.68723 | 17543 ft | 383 kts | 274° |
| 2026-04-24 13:02 | 35.32005 | 139.65553 | 18330 ft | 387 kts | 291° |
| 2026-04-24 13:03 | 35.33089 | 139.62509 | 19111 ft | 392 kts | 294° |
| 2026-04-24 13:03 | 35.34233 | 139.59452 | 19891 ft | 397 kts | 294° |
| 2026-04-24 13:03 | 35.35380 | 139.56360 | 20635 ft | 402 kts | 294° |
| 2026-04-24 13:03 | 35.36536 | 139.53218 | 21381 ft | 406 kts | 294° |
| 2026-04-24 13:04 | 35.37697 | 139.50041 | 22097 ft | 411 kts | 294° |
| 2026-04-24 13:04 | 35.38864 | 139.46833 | 22791 ft | 415 kts | 294° |
| 2026-04-24 13:04 | 35.40047 | 139.43577 | 23476 ft | 420 kts | 294° |
| 2026-04-24 13:04 | 35.41235 | 139.40299 | 24135 ft | 424 kts | 294° |
| 2026-04-24 13:05 | 35.42440 | 139.36970 | 24797 ft | 428 kts | 294° |
| 2026-04-24 13:05 | 35.43652 | 139.33615 | 25425 ft | 432 kts | 294° |
| 2026-04-24 13:05 | 35.44874 | 139.30230 | 26032 ft | 437 kts | 294° |
| 2026-04-24 13:05 | 35.46109 | 139.26805 | 26628 ft | 441 kts | 294° |
| 2026-04-24 13:06 | 35.47356 | 139.23342 | 27159 ft | 446 kts | 294° |
| 2026-04-24 13:06 | 35.48536 | 139.19850 | 27687 ft | 451 kts | 289° |
| 2026-04-24 13:06 | 35.49355 | 139.16089 | 28190 ft | 456 kts | 279° |
| 2026-04-24 13:06 | 35.49663 | 139.12184 | 28661 ft | 461 kts | 272° |
| 2026-04-24 13:07 | 35.49652 | 139.08284 | 29160 ft | 465 kts | 268° |
| 2026-04-24 13:07 | 35.49469 | 139.04312 | 29662 ft | 468 kts | 266° |
| 2026-04-24 13:07 | 35.49214 | 139.00314 | 30143 ft | 472 kts | 265° |
| 2026-04-24 13:07 | 35.48946 | 138.96286 | 30607 ft | 475 kts | 265° |
| 2026-04-24 13:08 | 35.48689 | 138.92234 | 31062 ft | 479 kts | 265° |
| 2026-04-24 13:08 | 35.48451 | 138.88139 | 31460 ft | 483 kts | 266° |
| 2026-04-24 13:08 | 35.48227 | 138.84020 | 31848 ft | 487 kts | 266° |
| 2026-04-24 13:09 | 35.47802 | 138.75696 | 32667 ft | 491 kts | 266° |
| 2026-04-24 13:09 | 35.47591 | 138.71507 | 33015 ft | 494 kts | 266° |
| 2026-04-24 13:09 | 35.47377 | 138.67295 | 33341 ft | 497 kts | 266° |
| 2026-04-24 13:09 | 35.47166 | 138.63112 | 33722 ft | 497 kts | 266° |
| 2026-04-24 13:10 | 35.46943 | 138.58828 | 34238 ft | 496 kts | 266° |
| 2026-04-24 13:10 | 35.46720 | 138.54617 | 34712 ft | 494 kts | 266° |
| 2026-04-24 13:10 | 35.46495 | 138.50417 | 35192 ft | 492 kts | 266° |
| 2026-04-24 13:10 | 35.46270 | 138.46245 | 35694 ft | 489 kts | 266° |
| 2026-04-24 13:11 | 35.46046 | 138.42098 | 36121 ft | 487 kts | 266° |
| 2026-04-24 13:11 | 35.45820 | 138.37950 | 36487 ft | 487 kts | 266° |
| 2026-04-24 13:11 | 35.45594 | 138.33815 | 36732 ft | 490 kts | 266° |
| 2026-04-24 13:11 | 35.45363 | 138.29619 | 37018 ft | 491 kts | 266° |
| 2026-04-24 13:12 | 35.45135 | 138.25484 | 37173 ft | 495 kts | 266° |
| 2026-04-24 13:12 | 35.44900 | 138.21257 | 37355 ft | 498 kts | 266° |
| 2026-04-24 13:12 | 35.44663 | 138.17021 | 37668 ft | 497 kts | 266° |
| 2026-04-24 13:12 | 35.44425 | 138.12749 | 37910 ft | 499 kts | 266° |
| 2026-04-24 13:13 | 35.43940 | 138.04206 | 38002 ft | 499 kts | 266° |
| 2026-04-24 13:13 | 35.43455 | 137.95836 | 38002 ft | 486 kts | 266° |
| 2026-04-24 13:14 | 35.43217 | 137.91767 | 38009 ft | 470 kts | 266° |
| 2026-04-24 13:14 | 35.42987 | 137.87833 | 38010 ft | 455 kts | 266° |
| 2026-04-24 13:14 | 35.42763 | 137.84026 | 38010 ft | 440 kts | 266° |
| 2026-04-24 13:14 | 35.42545 | 137.80341 | 38010 ft | 427 kts | 266° |
| 2026-04-24 13:15 | 35.42091 | 137.73184 | 38001 ft | 423 kts | 265° |
| 2026-04-24 13:15 | 35.41536 | 137.65980 | 37999 ft | 427 kts | 264° |
| 2026-04-24 13:16 | 35.40963 | 137.58705 | 38000 ft | 430 kts | 264° |
| 2026-04-24 13:16 | 35.40325 | 137.51429 | 38001 ft | 429 kts | 262° |
| 2026-04-24 13:17 | 35.39440 | 137.44220 | 38001 ft | 425 kts | 261° |
| 2026-04-24 13:17 | 35.38540 | 137.37121 | 38001 ft | 424 kts | 261° |
| 2026-04-24 13:18 | 35.37668 | 137.29976 | 38001 ft | 424 kts | 262° |
| 2026-04-24 13:18 | 35.36815 | 137.22847 | 38000 ft | 422 kts | 262° |
| 2026-04-24 13:19 | 35.35966 | 137.15739 | 38000 ft | 421 kts | 262° |
| 2026-04-24 13:19 | 35.35115 | 137.08640 | 38000 ft | 421 kts | 262° |
| 2026-04-24 13:20 | 35.34260 | 137.01592 | 38000 ft | 421 kts | 261° |
| 2026-04-24 13:20 | 35.33394 | 136.94496 | 38000 ft | 421 kts | 261° |
| 2026-04-24 13:21 | 35.32526 | 136.87417 | 38000 ft | 420 kts | 261° |
| 2026-04-24 13:21 | 35.31663 | 136.80395 | 38000 ft | 420 kts | 261° |
| 2026-04-24 13:22 | 35.30789 | 136.73325 | 38000 ft | 420 kts | 261° |
| 2026-04-24 13:22 | 35.29911 | 136.66262 | 38000 ft | 420 kts | 261° |
| 2026-04-24 13:23 | 35.29026 | 136.59201 | 38000 ft | 420 kts | 261° |
| 2026-04-24 13:23 | 35.28143 | 136.52139 | 37997 ft | 420 kts | 261° |
| 2026-04-24 13:24 | 35.27705 | 136.48655 | 37682 ft | 420 kts | 261° |
| 2026-04-24 13:24 | 35.27260 | 136.45120 | 37209 ft | 418 kts | 261° |
| 2026-04-24 13:24 | 35.26821 | 136.41641 | 36909 ft | 411 kts | 261° |
| 2026-04-24 13:24 | 35.26385 | 136.38203 | 36578 ft | 406 kts | 261° |
| 2026-04-24 13:25 | 35.25955 | 136.34814 | 36221 ft | 401 kts | 261° |
| 2026-04-24 13:25 | 35.25526 | 136.31464 | 35890 ft | 396 kts | 261° |
| 2026-04-24 13:25 | 35.25103 | 136.28160 | 35569 ft | 390 kts | 261° |
| 2026-04-24 13:25 | 35.24687 | 136.24908 | 35262 ft | 384 kts | 261° |
| 2026-04-24 13:26 | 35.24277 | 136.21702 | 34929 ft | 379 kts | 261° |
| 2026-04-24 13:26 | 35.23876 | 136.18576 | 34609 ft | 374 kts | 261° |
| 2026-04-24 13:26 | 35.23466 | 136.15453 | 34267 ft | 370 kts | 260° |
| 2026-04-24 13:26 | 35.23030 | 136.12374 | 33929 ft | 365 kts | 260° |
| 2026-04-24 13:27 | 35.22071 | 136.05936 | 33223 ft | 356 kts | 259° |
| 2026-04-24 13:27 | 35.21627 | 136.02979 | 32897 ft | 351 kts | 259° |
| 2026-04-24 13:27 | 35.21190 | 136.00059 | 32567 ft | 347 kts | 259° |
| 2026-04-24 13:28 | 35.20763 | 135.97175 | 32238 ft | 343 kts | 260° |
| 2026-04-24 13:28 | 35.20345 | 135.94335 | 31888 ft | 340 kts | 260° |
| 2026-04-24 13:28 | 35.19922 | 135.91460 | 31331 ft | 344 kts | 260° |
| 2026-04-24 13:28 | 35.19502 | 135.88605 | 30756 ft | 348 kts | 260° |
| 2026-04-24 13:29 | 35.19073 | 135.85698 | 30181 ft | 352 kts | 260° |
| 2026-04-24 13:29 | 35.18633 | 135.82722 | 29598 ft | 356 kts | 259° |
| 2026-04-24 13:29 | 35.18190 | 135.79729 | 29018 ft | 359 kts | 259° |
| 2026-04-24 13:29 | 35.17725 | 135.76712 | 28444 ft | 363 kts | 259° |
| 2026-04-24 13:30 | 35.17221 | 135.73678 | 27858 ft | 366 kts | 258° |
| 2026-04-24 13:30 | 35.16697 | 135.70620 | 27278 ft | 369 kts | 258° |
| 2026-04-24 13:30 | 35.16166 | 135.67540 | 26660 ft | 373 kts | 258° |
| 2026-04-24 13:30 | 35.15629 | 135.64421 | 26013 ft | 377 kts | 258° |
| 2026-04-24 13:31 | 35.15090 | 135.61272 | 25348 ft | 381 kts | 258° |
| 2026-04-24 13:31 | 35.14556 | 135.58135 | 24707 ft | 384 kts | 258° |
| 2026-04-24 13:31 | 35.14013 | 135.54935 | 24050 ft | 386 kts | 258° |
| 2026-04-24 13:31 | 35.13468 | 135.51719 | 23402 ft | 388 kts | 258° |
| 2026-04-24 13:32 | 35.12920 | 135.48488 | 22738 ft | 389 kts | 258° |
| 2026-04-24 13:32 | 35.12370 | 135.45249 | 22088 ft | 390 kts | 258° |
| 2026-04-24 13:32 | 35.11818 | 135.42010 | 21430 ft | 390 kts | 258° |
| 2026-04-24 13:32 | 35.11266 | 135.38774 | 20772 ft | 385 kts | 258° |
| 2026-04-24 13:33 | 35.10731 | 135.35645 | 20137 ft | 369 kts | 258° |
| 2026-04-24 13:33 | 35.10215 | 135.32636 | 19512 ft | 355 kts | 258° |
| 2026-04-24 13:33 | 35.09719 | 135.29740 | 18868 ft | 343 kts | 258° |
| 2026-04-24 13:33 | 35.09235 | 135.26933 | 18226 ft | 333 kts | 258° |
| 2026-04-24 13:34 | 35.08769 | 135.24241 | 17596 ft | 324 kts | 258° |
| 2026-04-24 13:34 | 35.08313 | 135.21592 | 17101 ft | 312 kts | 258° |
| 2026-04-24 13:34 | 35.07875 | 135.19053 | 16582 ft | 301 kts | 258° |
| 2026-04-24 13:34 | 35.07451 | 135.16589 | 16025 ft | 293 kts | 258° |
| 2026-04-24 13:35 | 35.07035 | 135.14183 | 15452 ft | 286 kts | 258° |
| 2026-04-24 13:35 | 35.06628 | 135.11830 | 14884 ft | 281 kts | 258° |
| 2026-04-24 13:35 | 35.06223 | 135.09494 | 14319 ft | 284 kts | 258° |
| 2026-04-24 13:35 | 35.05811 | 135.07117 | 13743 ft | 290 kts | 258° |
| 2026-04-24 13:36 | 35.05389 | 135.04689 | 13158 ft | 295 kts | 258° |
| 2026-04-24 13:36 | 35.04959 | 135.02215 | 12570 ft | 300 kts | 258° |
| 2026-04-24 13:36 | 35.04524 | 134.99715 | 11984 ft | 303 kts | 258° |
| 2026-04-24 13:36 | 35.04051 | 134.97198 | 11414 ft | 306 kts | 254° |
| 2026-04-24 13:37 | 35.03253 | 134.94832 | 10836 ft | 307 kts | 240° |
| 2026-04-24 13:37 | 35.01956 | 134.92765 | 10273 ft | 308 kts | 224° |
| 2026-04-24 13:37 | 35.00220 | 134.91289 | 9970 ft | 300 kts | 207° |
| 2026-04-24 13:37 | 34.98360 | 134.90239 | 9775 ft | 289 kts | 202° |
| 2026-04-24 13:38 | 34.96518 | 134.89382 | 9603 ft | 278 kts | 200° |
| 2026-04-24 13:38 | 34.94728 | 134.88629 | 9464 ft | 266 kts | 199° |
| 2026-04-24 13:38 | 34.93007 | 134.87926 | 9333 ft | 256 kts | 199° |
| 2026-04-24 13:38 | 34.91358 | 134.87248 | 9206 ft | 245 kts | 199° |
| 2026-04-24 13:39 | 34.89782 | 134.86588 | 9085 ft | 235 kts | 199° |
| 2026-04-24 13:39 | 34.88289 | 134.85949 | 8984 ft | 225 kts | 200° |
| 2026-04-24 13:39 | 34.86848 | 134.85324 | 8871 ft | 215 kts | 200° |
| 2026-04-24 13:39 | 34.85467 | 134.84720 | 8711 ft | 209 kts | 200° |
| 2026-04-24 13:40 | 34.84106 | 134.84122 | 8462 ft | 207 kts | 200° |
| 2026-04-24 13:40 | 34.82756 | 134.83526 | 8201 ft | 206 kts | 200° |
| 2026-04-24 13:40 | 34.81412 | 134.82932 | 7959 ft | 205 kts | 200° |
| 2026-04-24 13:40 | 34.80077 | 134.82344 | 7683 ft | 204 kts | 200° |
| 2026-04-24 13:41 | 34.78746 | 134.81759 | 7408 ft | 203 kts | 200° |
| 2026-04-24 13:41 | 34.77421 | 134.81176 | 7151 ft | 202 kts | 200° |
| 2026-04-24 13:41 | 34.76099 | 134.80596 | 6886 ft | 201 kts | 200° |
| 2026-04-24 13:41 | 34.75230 | 134.80214 | 6707 ft | 201 kts | 200° |
| 2026-04-24 13:42 | 34.73492 | 134.79452 | 6385 ft | 200 kts | 200° |
| 2026-04-24 13:42 | 34.72188 | 134.78880 | 6119 ft | 199 kts | 200° |
| 2026-04-24 13:42 | 34.70888 | 134.78311 | 5853 ft | 198 kts | 200° |
| 2026-04-24 13:42 | 34.69572 | 134.77824 | 5576 ft | 198 kts | 192° |
| 2026-04-24 13:43 | 34.68203 | 134.77760 | 5299 ft | 198 kts | 172° |
| 2026-04-24 13:43 | 34.66898 | 134.78262 | 5020 ft | 198 kts | 152° |
| 2026-04-24 13:43 | 34.65818 | 134.79277 | 4761 ft | 197 kts | 132° |
| 2026-04-24 13:43 | 34.65092 | 134.80668 | 4481 ft | 197 kts | 112° |
| 2026-04-24 13:44 | 34.64725 | 134.82273 | 4212 ft | 196 kts | 103° |
| 2026-04-24 13:44 | 34.64408 | 134.83856 | 3951 ft | 195 kts | 104° |
| 2026-04-24 13:44 | 34.64057 | 134.85444 | 3685 ft | 195 kts | 105° |
| 2026-04-24 13:44 | 34.63689 | 134.87022 | 3427 ft | 193 kts | 106° |
| 2026-04-24 13:45 | 34.63322 | 134.88548 | 3347 ft | 181 kts | 107° |
| 2026-04-24 13:45 | 34.62974 | 134.89974 | 3186 ft | 173 kts | 107° |
| 2026-04-24 13:45 | 34.62631 | 134.91368 | 2947 ft | 171 kts | 107° |
| 2026-04-24 13:45 | 34.62299 | 134.92711 | 2931 ft | 160 kts | 107° |
| 2026-04-24 13:46 | 34.61985 | 134.93979 | 2927 ft | 155 kts | 107° |
| 2026-04-24 13:46 | 34.61673 | 134.95233 | 2918 ft | 155 kts | 107° |
| 2026-04-24 13:46 | 34.61414 | 134.96504 | 2918 ft | 156 kts | 98° |
| 2026-04-24 13:46 | 34.61382 | 134.97812 | 2916 ft | 155 kts | 86° |
| 2026-04-24 13:47 | 34.61463 | 134.99119 | 2918 ft | 155 kts | 85° |
| 2026-04-24 13:47 | 34.61551 | 135.00426 | 2917 ft | 155 kts | 84° |
| 2026-04-24 13:47 | 34.61655 | 135.01729 | 2918 ft | 155 kts | 84° |
| 2026-04-24 13:47 | 34.61753 | 135.03016 | 2907 ft | 156 kts | 85° |
| 2026-04-24 13:48 | 34.61845 | 135.04309 | 2753 ft | 152 kts | 85° |
| 2026-04-24 13:48 | 34.61940 | 135.05565 | 2527 ft | 146 kts | 84° |
| 2026-04-24 13:48 | 34.62037 | 135.06778 | 2346 ft | 144 kts | 84° |
| 2026-04-24 13:48 | 34.62133 | 135.07984 | 2152 ft | 144 kts | 84° |
| 2026-04-24 13:49 | 34.62228 | 135.09191 | 1962 ft | 144 kts | 84° |
| 2026-04-24 13:49 | 34.62321 | 135.10379 | 1768 ft | 138 kts | 84° |
| 2026-04-24 13:49 | 34.62382 | 135.11142 | 1650 ft | 136 kts | 84° |
| 2026-04-24 13:49 | 34.62471 | 135.12280 | 1460 ft | 135 kts | 84° |
| 2026-04-24 13:50 | 34.62591 | 135.13795 | 1230 ft | 135 kts | 84° |
| 2026-04-24 13:50 | 34.62650 | 135.14546 | 1105 ft | 135 kts | 84° |
| 2026-04-24 13:50 | 34.62739 | 135.15676 | 934 ft | 134 kts | 84° |
| 2026-04-24 13:50 | 34.62855 | 135.17169 | 728 ft | 134 kts | 84° |
| 2026-04-24 13:51 | 34.62940 | 135.18295 | 517 ft | 133 kts | 84° |
| 2026-04-24 13:51 | 34.63004 | 135.19041 | 386 ft | 133 kts | 84° |
| 2026-04-24 13:51 | 34.63094 | 135.20149 | 209 ft | 133 kts | 84° |
| 2026-04-24 13:51 | 34.63180 | 135.21262 | 52 ft | 132 kts | 84° |
| 2026-04-24 13:52 | 34.63260 | 135.22259 | 41 ft | 88 kts | 84° |
| 2026-04-24 13:52 | 34.63291 | 135.22637 | 42 ft | 0 kts | 84° |
| 2026-04-24 13:52 | 34.63295 | 135.22685 | 42 ft | 10 kts | 84° |
| 2026-04-24 13:52 | 34.63303 | 135.22794 | 41 ft | 15 kts | 85° |
| 2026-04-24 13:53 | 34.63316 | 135.22993 | 39 ft | 21 kts | 86° |
| 2026-04-24 13:53 | 34.63342 | 135.23162 | 38 ft | 19 kts | 50° |
| 2026-04-24 13:53 | 34.63424 | 135.23189 | 40 ft | 19 kts | 354° |
| 2026-04-24 13:53 | 34.63489 | 135.23082 | 41 ft | 18 kts | 270° |
| 2026-04-24 13:54 | 34.63481 | 135.22934 | 41 ft | 16 kts | 264° |
| 2026-04-24 13:54 | 34.63498 | 135.22875 | 41 ft | 5 kts | 333° |
| 2026-04-24 13:54 | 34.63542 | 135.22871 | 41 ft | 8 kts | 355° |
| 2026-04-24 13:54 | 34.63604 | 135.22863 | 40 ft | 3 kts | 354° |
| 2026-04-24 13:55 | 34.63605 | 135.22863 | 40 ft | 0 kts | 354° |